Latest Coastal Weather Observations for Middle Percy Island

IDQ60701

Issued at 3:55 pm EST Saturday 20 September 2014 (issued every 10 minutes, with the page automatically refreshed every 10 minutes)

About coastal observations | Map of coastal stations | Coastal observations for QLD | Marine services | Other Formats
Station Details ID: 200001 Name: MIDDLE PERCY ISLAND Lat: -21.66 Lon: 150.27 Height: 208.7 m
Data from the previous 72 hours. | See also: Recent months at Middle Percy Island
Date/Time
EST
Temp

°C
Wind Pressure Rain
since 9am
mm
Weather Cloud Vis
km
Sea
Height
m
Swell
Dir
 
Speed
knots
Gust
knots
hPa Trend Height
m
Period
s
Dir
20/03:30pm 21.7 ENE 12 16 1015.8 - 0.0 - - - - - - -
20/03:00pm 22.6 ENE 10 15 1016.0 - 0.0 - - - - - - -
20/02:30pm 22.6 ESE 11 15 1016.3 - 0.0 - - - - - - -
20/02:00pm 23.7 ESE 10 15 1016.7 - 0.0 - - - - - - -
20/01:30pm 23.7 SE 10 15 1016.9 - 0.0 - - - - - - -
20/01:00pm 23.8 ESE 9 14 1017.3 - 0.0 - - - - - - -
20/12:30pm 24.2 ENE 6 11 1017.6 - 0.0 - - - - - - -
20/12:00pm 23.4 ENE 7 13 1017.9 - 0.0 - - - - - - -
20/11:30am 22.9 SE 8 11 1018.3 - 0.0 - - - - - - -
20/11:00am 23.5 ESE 7 9 1018.9 - 0.0 - - - - - - -
20/10:30am 24.3 SE 5 8 1019.3 - 0.0 - - - - - - -
20/10:00am 24.3 NE 5 8 1019.3 - 0.0 - - - - - - -
20/09:30am 24.0 N 4 6 1019.6 - 0.0 - - - - - - -
20/09:00am 22.7 NNW 2 4 1019.6 - 0.0 - - - - - - -
20/08:30am 22.0 NW 4 5 1019.7 - 0.0 - - - - - - -
20/08:00am 21.8 N 5 7 1019.2 - 0.0 - - - - - - -
20/07:30am 21.3 N 5 7 1018.7 - 0.0 - - - - - - -
20/07:00am 20.8 N 4 7 1018.3 - 0.0 - - - - - - -
20/06:30am 19.3 N 4 5 1017.8 - 0.0 - - - - - - -
20/06:00am 18.9 N 7 10 1017.4 - 0.0 - - - - - - -
20/05:30am 19.1 N 9 11 1017.0 - 0.0 - - - - - - -
20/05:00am 19.1 N 11 14 1016.7 - 0.0 - - - - - - -
20/04:30am 19.3 N 11 15 1016.4 - 0.0 - - - - - - -
20/04:00am 19.2 N 11 15 1016.2 - 0.0 - - - - - - -
20/03:30am 19.4 N 11 16 1016.3 - 0.0 - - - - - - -
20/03:00am 19.6 N 12 15 1016.4 - 0.0 - - - - - - -
20/02:30am 19.6 N 12 17 1016.6 - 0.0 - - - - - - -
20/02:00am 19.5 NNE 12 16 1017.1 - 0.0 - - - - - - -
20/01:30am 19.8 NNE 12 17 1017.4 - 0.0 - - - - - - -
20/01:00am 19.8 NNE 11 16 1017.5 - 0.0 - - - - - - -
20/12:30am 19.9 NNE 11 16 1017.8 - 0.0 - - - - - - -
20/12:00am 19.9 NNE 12 18 1018.3 - 0.0 - - - - - - -
 
Date/Time
EST
Temp

°C
Wind Pressure Rain
since 9am
mm
Weather Cloud Vis
km
Sea
Height
m
Swell
Dir
 
Speed
knots
Gust
knots
hPa Trend Height
m
Period
s
Dir
19/11:30pm 19.9 NNE 12 19 1018.3 - 0.0 - - - - - - -
19/11:00pm 20.0 NNE 14 20 1018.2 - 0.0 - - - - - - -
19/10:30pm 19.9 NE 12 18 1018.2 - 0.0 - - - - - - -
19/10:00pm 20.0 NNE 14 20 1018.3 - 0.0 - - - - - - -
19/09:30pm 19.9 NE 13 19 1018.3 - 0.0 - - - - - - -
19/09:00pm 19.8 NE 12 19 1018.3 - 0.0 - - - - - - -
19/08:30pm 20.0 NE 12 19 1018.3 - 0.0 - - - - - - -
19/08:00pm 19.9 NE 11 18 1018.5 - 0.0 - - - - - - -
19/07:30pm 19.9 ENE 10 18 1018.3 - 0.0 - - - - - - -
19/07:00pm 19.8 ENE 10 15 1018.0 - 0.0 - - - - - - -
19/06:30pm 19.7 ENE 8 12 1017.7 - 0.0 - - - - - - -
19/06:00pm 19.7 ENE 8 11 1017.3 - 0.0 - - - - - - -
19/05:30pm 20.0 NE 8 12 1017.2 - 0.0 - - - - - - -
19/05:00pm 20.5 ENE 8 12 1017.0 - 0.0 - - - - - - -
19/04:30pm 21.7 NE 6 11 1017.0 - 0.0 - - - - - - -
19/04:00pm 22.4 ENE 5 9 1016.9 - 0.0 - - - - - - -
19/03:30pm 22.3 ESE 8 13 1016.6 - 0.0 - - - - - - -
19/03:00pm 22.8 E 5 8 1016.5 - 0.0 - - - - - - -
19/02:30pm 22.6 SE 11 14 1016.6 - 0.0 - - - - - - -
19/02:00pm 22.6 SE 10 14 1016.9 - 0.0 - - - - - - -
19/01:30pm 22.3 ESE 9 16 1017.4 - 0.0 - - - - - - -
19/01:00pm 23.2 ESE 9 12 1017.6 - 0.0 - - - - - - -
19/12:30pm 23.8 SE 7 11 1018.0 - 0.0 - - - - - - -
19/12:00pm 23.4 ESE 8 13 1018.8 - 0.0 - - - - - - -
19/11:30am 23.0 SE 7 11 1019.3 - 0.0 - - - - - - -
19/11:00am 23.1 ESE 8 12 1019.8 - 0.0 - - - - - - -
19/10:30am 22.4 ESE 8 12 1020.1 - 0.0 - - - - - - -
19/10:00am 22.9 ESE 8 11 1020.4 - 0.0 - - - - - - -
19/09:30am 22.0 ESE 8 11 1020.6 - 0.0 - - - - - - -
19/09:00am 21.2 SE 6 8 1020.5 - 0.2 - - - - - - -
19/08:30am 20.9 SE 7 10 1020.3 - 0.2 - - - - - - -
19/08:00am 21.1 ESE 7 10 1020.2 - 0.2 - - - - - - -
19/07:30am 20.8 ESE 5 8 1019.9 - 0.2 - - - - - - -
19/07:00am 19.8 E 4 6 1019.7 - 0.2 - - - - - - -
19/06:30am 19.0 E 4 6 1019.2 - 0.2 - - - - - - -
19/06:00am 18.7 E 5 7 1018.8 - 0.2 Recent precip. - - - - - -
19/05:30am 18.4 E 4 6 1018.6 - 0.0 - - - - - - -
19/05:00am 18.4 ENE 6 8 1018.3 - 0.0 - - - - - - -
19/04:30am 18.5 E 9 12 1017.8 - 0.0 - - - - - - -
19/04:00am 18.4 E 9 12 1017.7 - 0.0 - - - - - - -
19/03:30am 18.4 E 9 12 1017.6 - 0.0 - - - - - - -
19/03:00am 18.5 E 9 12 1017.7 - 0.0 - - - - - - -
19/02:30am 18.5 E 7 10 1018.1 - 0.0 - - - - - - -
19/02:00am 18.2 ESE 8 10 1018.2 - 0.0 - - - - - - -
19/01:30am 18.3 ESE 7 8 1018.3 - 0.0 - - - - - - -
19/01:00am 18.6 E 6 7 1018.4 - 0.0 - - - - - - -
19/12:30am 18.7 E 5 8 1018.6 - 0.0 - - - - - - -
19/12:00am 18.7 E 7 8 1018.6 - 0.0 - - - - - - -
 
Date/Time
EST
Temp

°C
Wind Pressure Rain
since 9am
mm
Weather Cloud Vis
km
Sea
Height
m
Swell
Dir
 
Speed
knots
Gust
knots
hPa Trend Height
m
Period
s
Dir
18/11:30pm 18.6 E 5 7 1018.8 - 0.0 - - - - - - -
18/11:00pm 19.0 SSE 3 4 1019.0 - 0.0 - - - - - - -
18/10:30pm 19.2 ENE 11 15 1018.6 - 0.0 - - - - - - -
18/10:00pm 19.3 ENE 11 15 1018.5 - 0.0 - - - - - - -
18/09:30pm 19.2 ENE 11 15 1018.4 - 0.0 - - - - - - -
18/09:00pm 19.1 ENE 10 13 1018.3 - 0.0 - - - - - - -
18/08:30pm 19.1 ENE 10 13 1018.1 - 0.0 - - - - - - -
18/08:00pm 19.2 ENE 10 14 1017.9 - 0.0 - - - - - - -
18/07:30pm 19.2 E 10 15 1017.7 - 0.0 - - - - - - -
18/07:00pm 19.3 E 10 14 1017.4 - 0.0 - - - - - - -
18/06:30pm 19.3 E 9 13 1017.2 - 0.0 - - - - - - -
18/06:00pm 19.4 E 8 16 1016.9 - 0.0 - - - - - - -
18/05:30pm 19.7 E 8 12 1016.7 - 0.0 - - - - - - -
18/05:00pm 20.4 ESE 11 17 1016.5 - 0.0 - - - - - - -
18/04:30pm 20.8 ESE 15 20 1016.3 - 0.0 - - - - - - -
18/04:00pm 21.4 ESE 14 20 1016.3 - 0.0 - - - - - - -
18/03:30pm 21.8 ESE 14 19 1016.2 - 0.0 - - - - - - -
18/03:00pm 21.8 SE 17 22 1016.1 - 0.0 - - - - - - -
18/02:30pm 22.3 SE 16 22 1016.3 - 0.0 - - - - - - -
18/02:00pm 22.9 SSE 15 24 1016.6 - 0.0 - - - - - - -
18/01:30pm 23.4 SSE 14 21 1016.8 - 0.0 - - - - - - -
18/01:00pm 22.6 SSE 16 24 1017.1 - 0.0 - - - - - - -
18/12:30pm 22.2 SSE 19 25 1017.3 - 0.0 - - - - - - -
18/12:00pm 22.2 SSE 17 23 1017.6 - 0.0 - - - - - - -
18/11:30am 22.6 SSE 16 22 1017.9 - 0.0 - - - - - - -
18/11:00am 21.8 S 13 18 1018.2 - 0.0 - - - - - - -
18/10:30am 21.1 S 12 16 1018.5 - 0.0 - - - - - - -
18/10:00am 20.4 S 12 15 1018.7 - 0.0 - - - - - - -
18/09:30am 20.7 SSW 8 12 1018.8 - 0.0 - - - - - - -
18/09:00am 20.6 SW 8 11 1018.9 - 0.2 - - - - - - -
18/08:30am 20.4 WSW 6 10 1018.7 - 0.2 - - - - - - -
18/08:00am 20.7 WNW 6 10 1018.5 - 0.2 - - - - - - -
18/07:30am 20.2 WNW 7 10 1018.2 - 0.2 - - - - - - -
18/07:00am 19.7 NW 7 11 1017.9 - 0.2 - - - - - - -
18/06:30am 19.4 NW 9 13 1017.2 - 0.2 - - - - - - -
18/06:00am 18.9 NNW 9 13 1016.7 - 0.2 - - - - - - -
18/05:30am 19.1 N 9 13 1016.3 - 0.2 - - - - - - -
18/05:00am 19.2 NNW 10 13 1015.8 - 0.2 - - - - - - -
18/04:30am 19.3 N 11 16 1015.6 - 0.2 - - - - - - -
18/04:00am 19.4 N 11 15 1015.5 - 0.2 - - - - - - -
18/03:30am 19.3 N 12 17 1015.4 - 0.2 - - - - - - -
18/03:00am 19.1 N 12 14 1015.2 - 0.2 Rain - - - - - -
18/02:30am 19.1 N 13 17 1015.5 - 0.0 - - - - - - -
18/02:00am 19.1 N 12 17 1015.7 - 0.0 - - - - - - -
18/01:30am 19.1 NNW 12 16 1016.0 - 0.0 - - - - - - -
18/01:00am 19.0 NNW 11 14 1016.4 - 0.0 - - - - - - -
18/12:30am 18.9 NNW 10 13 1016.6 - 0.0 - - - - - - -
18/12:00am 19.0 NNW 9 13 1016.9 - 0.0 - - - - - - -
 
Date/Time
EST
Temp

°C
Wind Pressure Rain
since 9am
mm
Weather Cloud Vis
km
Sea
Height
m
Swell
Dir
 
Speed
knots
Gust
knots
hPa Trend Height
m
Period
s
Dir
17/11:30pm 19.1 NNW 7 11 1016.8 - 0.0 - - - - - - -
17/11:00pm 19.3 NNW 12 15 1016.5 - 0.0 - - - - - - -
17/10:30pm 19.4 N 13 18 1016.4 - 0.0 - - - - - - -
17/10:00pm 19.4 N 15 19 1016.0 - 0.0 - - - - - - -
17/09:30pm 19.5 N 15 19 1015.9 - 0.0 - - - - - - -
17/09:00pm 19.5 N 15 18 1015.9 - 0.0 - - - - - - -
17/08:30pm 19.5 N 14 18 1015.8 - 0.0 - - - - - - -
17/08:00pm 19.5 N 14 19 1015.6 - 0.0 - - - - - - -
17/07:30pm 19.4 N 14 18 1015.2 - 0.0 - - - - - - -
17/07:00pm 19.5 N 15 19 1015.0 - 0.0 - - - - - - -
17/06:30pm 19.6 N 15 20 1014.6 - 0.0 - - - - - - -
17/06:00pm 19.8 N 16 21 1014.4 - 0.0 - - - - - - -
17/05:30pm 20.2 N 13 17 1014.3 - 0.0 - - - - - - -
17/05:00pm 20.7 N 14 19 1014.1 - 0.0 - - - - - - -
17/04:30pm 21.3 N 11 15 1014.1 - 0.0 - - - - - - -
17/04:00pm 21.6 N 11 14 1014.2 - 0.0 - - - - - - -

Other Formats:

Comma delimited format used in spreadsheet applications
http://www.bom.gov.au/fwo/IDQ60701/IDQ60701.94372.axf

JavaScript Object Notation format (JSON) in row-major order
http://www.bom.gov.au/fwo/IDQ60701/IDQ60701.94372.json